createdAt,value
2015-02-24T08:29:25.203Z,99404
2015-02-24T08:29:35.616Z,99410
2015-02-24T08:29:46.039Z,99407
2015-02-24T08:29:56.430Z,99410
2015-02-24T08:30:06.830Z,99407
2015-02-24T08:30:17.920Z,99401
2015-02-24T08:30:28.329Z,99409
2015-02-24T08:30:39.523Z,99404
2015-02-24T08:30:49.932Z,99401
2015-02-24T08:31:00.301Z,99412
2015-02-24T08:31:10.676Z,99412
2015-02-24T08:31:21.050Z,99415
2015-02-24T08:31:31.483Z,99415
2015-02-24T08:31:41.897Z,99418
2015-02-24T08:31:52.602Z,99415
2015-02-24T08:32:03.033Z,99418
2015-02-24T08:32:13.445Z,99412
2015-02-24T08:32:23.861Z,99415
2015-02-24T08:32:34.292Z,99415
2015-02-24T08:32:44.849Z,99418
2015-02-24T08:32:55.271Z,99415
2015-02-24T08:33:05.693Z,99418
2015-02-24T08:33:16.074Z,99415
2015-02-24T08:33:26.484Z,99415
2015-02-24T08:33:36.870Z,99409
2015-02-24T08:33:47.291Z,99421
2015-02-24T08:33:57.717Z,99426
2015-02-24T08:34:08.159Z,99426
2015-02-24T08:34:18.603Z,99421
2015-02-24T08:34:29.016Z,99421
2015-02-24T08:34:39.564Z,99418
2015-02-24T08:34:49.949Z,99421
2015-02-24T08:35:00.330Z,99423
2015-02-24T08:35:10.747Z,99418
2015-02-24T08:35:21.172Z,99432
2015-02-24T08:35:31.615Z,99426
2015-02-24T08:35:42.000Z,99418
2015-02-24T08:35:52.392Z,99418
2015-02-24T08:36:02.764Z,99423
2015-02-24T08:36:13.343Z,99418
2015-02-24T08:36:23.835Z,99423
2015-02-24T08:36:34.252Z,99415
2015-02-24T08:36:44.671Z,99421
2015-02-24T08:36:55.066Z,99421
2015-02-24T08:37:05.666Z,99418
2015-02-24T08:37:16.087Z,99418
2015-02-24T08:37:26.512Z,99412
2015-02-24T08:37:36.944Z,99423
2015-02-24T08:37:47.339Z,99417
2015-02-24T08:37:57.734Z,99417
2015-02-24T08:38:08.162Z,99420
2015-02-24T08:38:18.831Z,99426
2015-02-24T08:38:29.462Z,99412
2015-02-24T08:38:39.948Z,99420
2015-02-24T08:38:50.368Z,99423
2015-02-24T08:39:00.811Z,99417
2015-02-24T08:39:11.207Z,99423
2015-02-24T08:39:21.663Z,99417
2015-02-24T08:39:32.609Z,99423
2015-02-24T08:39:43.004Z,99415
2015-02-24T08:39:53.394Z,99412
2015-02-24T08:40:03.942Z,99412
2015-02-24T08:40:14.421Z,99417
2015-02-24T08:40:24.832Z,99417
2015-02-24T08:40:35.250Z,99415
2015-02-24T08:40:46.469Z,99420
2015-02-24T08:40:56.910Z,99432
2015-02-24T08:41:07.592Z,99423
2015-02-24T08:41:18.233Z,99415
2015-02-24T08:41:28.677Z,99423
2015-02-24T08:41:39.101Z,99418
2015-02-24T08:41:49.558Z,99420
2015-02-24T08:42:00.066Z,99426
2015-02-24T08:42:10.609Z,99415
2015-02-24T08:42:21.087Z,99426
2015-02-24T08:42:31.474Z,99415
2015-02-24T08:42:41.896Z,99412
2015-02-24T08:42:52.333Z,99409
2015-02-24T08:43:02.778Z,99417
2015-02-24T08:43:13.494Z,99426
2015-02-24T08:43:23.981Z,99417
2015-02-24T08:43:34.355Z,99412
2015-02-24T08:43:44.739Z,99415
2015-02-24T08:43:55.211Z,99429
2015-02-24T08:44:05.624Z,99417
2015-02-24T08:44:16.153Z,99417
2015-02-24T08:44:26.699Z,99420
2015-02-24T08:44:37.107Z,99420
2015-02-24T08:44:47.598Z,99423
2015-02-24T08:44:58.041Z,99418
2015-02-24T08:45:08.453Z,99420
2015-02-24T08:45:19.137Z,99415
2015-02-24T08:45:29.675Z,99426
2015-02-24T08:45:40.120Z,99426
2015-02-24T08:45:50.542Z,99418
2015-02-24T08:46:00.930Z,99420
2015-02-24T08:46:11.353Z,99418
2015-02-24T08:46:21.778Z,99418
2015-02-24T08:46:32.215Z,99420
2015-02-24T08:46:42.773Z,99426
2015-02-24T08:46:53.431Z,99432
2015-02-24T08:47:03.832Z,99418
2015-02-24T08:47:14.224Z,99420
2015-02-24T08:47:24.786Z,99429
2015-02-24T08:47:35.321Z,99418
2015-02-24T08:47:45.731Z,99415
2015-02-24T08:47:56.517Z,99418
2015-02-24T08:48:06.938Z,99406
2015-02-24T08:48:17.355Z,99421
2015-02-24T08:48:27.757Z,99406
2015-02-24T08:48:38.194Z,99415
2015-02-24T08:48:49.071Z,99426
2015-02-24T08:48:59.465Z,99426
2015-02-24T08:49:09.857Z,99415
2015-02-24T08:49:20.257Z,99420
2015-02-24T08:49:31.159Z,99426
2015-02-24T08:49:41.885Z,99426
2015-02-24T08:49:52.280Z,99415
2015-02-24T08:50:02.673Z,99420
2015-02-24T08:50:13.093Z,99426
2015-02-24T08:50:23.512Z,99429
2015-02-24T08:50:33.958Z,99423
2015-02-24T08:50:44.407Z,99415
2015-02-24T08:50:55.123Z,99421
2015-02-24T08:51:05.547Z,99415
2015-02-24T08:51:15.969Z,99423
2015-02-24T08:51:26.672Z,99421
2015-02-24T08:51:37.108Z,99418
2015-02-24T08:51:47.503Z,99415
2015-02-24T08:51:57.953Z,99406
2015-02-24T08:52:08.339Z,99415
2015-02-24T08:52:18.762Z,99415
2015-02-24T08:52:29.167Z,99418
2015-02-24T08:52:40.747Z,99423
2015-02-24T08:52:51.123Z,99418
2015-02-24T08:53:01.566Z,99429
2015-02-24T08:53:51.409Z,99426
2015-02-24T08:54:01.780Z,99429
2015-02-24T08:54:12.117Z,99412
2015-02-24T08:54:22.466Z,99417
2015-02-24T08:54:33.086Z,99417
2015-02-24T08:54:43.656Z,99417
2015-02-24T08:54:54.055Z,99420
2015-02-24T08:55:04.449Z,99414
2015-02-24T08:55:17.868Z,99420
2015-02-24T08:55:28.201Z,99426
2015-02-24T08:55:38.573Z,99420
2015-02-24T08:55:49.014Z,99426
2015-02-24T08:55:59.637Z,99411
2015-02-24T08:56:10.347Z,99417
2015-02-24T08:56:20.794Z,99405
2015-02-24T08:56:31.206Z,99405
2015-02-24T08:57:38.682Z,99420
2015-02-24T08:57:49.077Z,99420
2015-02-24T08:57:59.703Z,99414
2015-02-24T08:58:10.784Z,99414
2015-02-24T08:58:21.109Z,99417
2015-02-24T08:58:31.753Z,99406
2015-02-24T08:58:42.297Z,99423
2015-02-24T08:58:52.692Z,99406
2015-02-24T08:59:03.674Z,99423
2015-02-24T08:59:14.070Z,99417
2015-02-24T08:59:25.038Z,99420
2015-02-24T08:59:35.534Z,99403
2015-02-24T08:59:46.121Z,99432
2015-02-24T08:59:56.541Z,99432
2015-02-24T09:00:06.958Z,99420
2015-02-24T09:00:17.327Z,99409
2015-02-24T09:00:27.756Z,99417
2015-02-24T09:00:38.163Z,99403
2015-02-24T09:00:48.607Z,99403
2015-02-24T09:00:59.030Z,99414
2015-02-24T09:01:09.454Z,99420
2015-02-24T09:01:19.880Z,99417
2015-02-24T09:01:30.347Z,99420
2015-02-24T09:01:40.866Z,99417
2015-02-24T09:01:51.280Z,99417
2015-02-24T09:02:01.726Z,99423
2015-02-24T09:02:12.250Z,99414
2015-02-24T09:02:22.696Z,99414
2015-02-24T09:02:33.139Z,99417
2015-02-24T09:02:43.937Z,99417
2015-02-24T09:02:54.331Z,99426
2015-02-24T09:03:04.799Z,99417
2015-02-24T09:03:15.229Z,99412
2015-02-24T09:03:25.674Z,99417
2015-02-24T09:03:36.086Z,99417
2015-02-24T09:03:46.531Z,99412
2015-02-24T09:03:56.902Z,99417
2015-02-24T09:04:07.341Z,99417
2015-02-24T09:04:17.787Z,99420
2015-02-24T09:04:28.235Z,99411
2015-02-24T09:04:38.652Z,99406
2015-02-24T09:04:49.046Z,99414
2015-02-24T09:04:59.495Z,99414
2015-02-24T09:05:09.938Z,99414
2015-02-24T09:05:20.356Z,99417
2015-02-24T09:05:30.842Z,99417
2015-02-24T09:05:41.268Z,99414
2015-02-24T09:05:51.738Z,99409
2015-02-24T09:06:02.211Z,99426
2015-02-24T09:06:12.627Z,99420
2015-02-24T09:06:23.057Z,99429
2015-02-24T09:06:33.442Z,99429
2015-02-24T09:08:15.842Z,99440
2015-02-24T09:08:26.235Z,99434
2015-02-24T09:08:36.732Z,99428
2015-02-24T09:08:47.253Z,99440
2015-02-24T09:08:57.696Z,99428
2015-02-24T09:09:08.201Z,99440
2015-02-24T09:09:18.666Z,99434
2015-02-24T09:09:29.107Z,99434
2015-02-24T09:09:39.733Z,99440
2015-02-24T09:09:50.458Z,99431
2015-02-24T09:10:00.875Z,99437
2015-02-24T09:10:11.317Z,99422
2015-02-24T09:10:21.740Z,99437
2015-02-24T09:10:32.141Z,99431
2015-02-24T09:10:42.556Z,99428
2015-02-24T09:10:52.947Z,99428
2015-02-24T09:11:03.346Z,99434
2015-02-24T09:11:13.740Z,99431
2015-02-24T09:11:24.160Z,99434
2015-02-24T09:11:34.599Z,99434
2015-02-24T09:11:44.974Z,99425
2015-02-24T09:11:55.433Z,99431
2015-02-24T09:12:05.826Z,99434
2015-02-24T09:12:17.196Z,99431
2015-02-24T09:12:27.592Z,99428
2015-02-24T09:12:37.986Z,99440
2015-02-24T09:12:48.378Z,99434
2015-02-24T09:12:58.775Z,99440
2015-02-24T09:13:09.191Z,99446
2015-02-24T09:13:19.656Z,99446
2015-02-24T09:13:30.056Z,99440
2015-02-24T09:13:40.449Z,99446
2015-02-24T09:13:50.816Z,99443
2015-02-24T09:14:01.212Z,99452
2015-02-24T09:14:11.628Z,99457
2015-02-24T09:14:22.024Z,99452
2015-02-24T09:14:32.392Z,99446
2015-02-24T09:14:42.785Z,99440
2015-02-24T09:14:53.178Z,99457
2015-02-24T09:15:03.651Z,99452
2015-02-24T09:15:14.045Z,99449
2015-02-24T09:15:24.467Z,99455
2015-02-24T09:15:35.520Z,99440
2015-02-24T09:15:45.937Z,99446
2015-02-24T09:15:56.383Z,99449
2015-02-24T09:16:06.789Z,99443
2015-02-24T09:16:17.168Z,99458
2015-02-24T09:16:27.642Z,99463
2015-02-24T09:16:38.089Z,99443
2015-02-24T09:16:48.533Z,99458
2015-02-24T09:16:59.056Z,99455
2015-02-24T09:17:09.620Z,99458
2015-02-24T09:17:20.048Z,99446
2015-02-24T09:17:30.440Z,99449
2015-02-24T09:17:40.857Z,99464
2015-02-24T09:17:51.254Z,99446
2015-02-24T09:18:01.667Z,99464
2015-02-24T09:18:12.068Z,99449
2015-02-24T09:18:22.465Z,99467
2015-02-24T09:18:32.906Z,99464
2015-02-24T09:18:43.477Z,99471
2015-02-24T09:18:53.948Z,99458
2015-02-24T09:19:04.363Z,99467
2015-02-24T09:19:14.782Z,99461
2015-02-24T09:19:25.177Z,99461
2015-02-24T09:19:35.648Z,99461
2015-02-24T09:19:46.065Z,99452
2015-02-24T09:19:56.461Z,99455
2015-02-24T09:20:06.854Z,99467
2015-02-24T09:20:17.247Z,99464
2015-02-24T09:20:27.669Z,99458
2015-02-24T09:20:38.109Z,99464
2015-02-24T09:20:48.528Z,99475
2015-02-24T09:20:59.563Z,99467
2015-02-24T09:21:09.983Z,99464
2015-02-24T09:21:20.402Z,99464
2015-02-24T09:21:30.821Z,99461
2015-02-24T09:21:41.241Z,99467
2015-02-24T09:21:51.639Z,99464
2015-02-24T09:22:02.052Z,99464
2015-02-24T09:22:12.807Z,99464
2015-02-24T09:22:23.225Z,99469
2015-02-24T09:22:33.620Z,99469
2015-02-24T09:22:44.015Z,99464
2015-02-24T09:22:54.434Z,99464
2015-02-24T09:23:04.806Z,99467
2015-02-24T09:23:15.244Z,99458
2015-02-24T09:23:25.689Z,99461
2015-02-24T09:23:36.082Z,99458
2015-02-24T09:23:46.474Z,99467
2015-02-24T09:23:56.959Z,99464
2015-02-24T09:24:07.927Z,99472
2015-02-24T09:24:18.328Z,99467
2015-02-24T09:24:28.848Z,99464
2015-02-24T09:24:39.354Z,99467
2015-02-24T09:24:49.811Z,99467
2015-02-24T09:25:00.203Z,99475
2015-02-24T09:25:10.573Z,99472
2015-02-24T09:25:20.966Z,99464
2015-02-24T09:25:31.383Z,99467
2015-02-24T09:25:41.801Z,99467
2015-02-24T09:25:52.247Z,99469
2015-02-24T09:26:02.689Z,99472
2015-02-24T09:26:13.162Z,99458
2015-02-24T09:26:23.596Z,99472
2015-02-24T09:26:34.067Z,99469
2015-02-24T09:26:44.506Z,99478
2015-02-24T09:26:54.919Z,99467
2015-02-24T09:27:05.317Z,99467
2015-02-24T09:27:15.702Z,99469
2015-02-24T09:27:26.122Z,99481
2015-02-24T09:27:36.519Z,99478
2015-02-24T09:27:46.913Z,99472
2015-02-24T09:27:57.353Z,99469
2015-02-24T09:28:07.748Z,99472
2015-02-24T09:28:18.197Z,99475
2015-02-24T09:28:28.589Z,99467
2015-02-24T09:28:38.958Z,99467
2015-02-24T09:28:49.372Z,99481
2015-02-24T09:28:59.818Z,99475
2015-02-24T09:29:10.239Z,99475
2015-02-24T09:29:20.638Z,99481
2015-02-24T09:29:31.052Z,99475
2015-02-24T09:29:41.472Z,99467
2015-02-24T09:29:51.862Z,99458
2015-02-24T09:30:02.305Z,99475
2015-02-24T09:30:12.708Z,99469
2015-02-24T09:30:23.123Z,99472
2015-02-24T09:30:33.585Z,99469
2015-02-24T09:30:44.036Z,99467
2015-02-24T09:30:54.456Z,99464
2015-02-24T09:31:04.848Z,99456
2015-02-24T09:31:15.344Z,99467
2015-02-24T09:31:25.739Z,99467
2015-02-24T09:31:36.146Z,99461
2015-02-24T09:31:46.551Z,99467
2015-02-24T09:31:57.021Z,99472
2015-02-24T09:32:07.414Z,99459
2015-02-24T09:32:17.869Z,99472
2015-02-24T09:32:28.282Z,99472
2015-02-24T09:32:38.709Z,99459
2015-02-24T09:32:49.178Z,99469
2015-02-24T09:32:59.615Z,99453
2015-02-24T09:33:10.038Z,99459
2015-02-24T09:33:20.467Z,99456
2015-02-24T09:33:30.895Z,99475
2015-02-24T09:33:41.291Z,99462
2015-02-24T09:33:51.708Z,99450
2015-02-24T09:34:02.110Z,99475
2015-02-24T09:34:12.523Z,99464
2015-02-24T09:34:22.944Z,99469
2015-02-24T09:34:33.348Z,99467
2015-02-24T09:34:43.815Z,99467
2015-02-24T09:34:54.335Z,99467
2015-02-24T09:35:04.796Z,99467
2015-02-24T09:35:19.010Z,99467
2015-02-24T09:35:29.474Z,99469
2015-02-24T09:35:39.941Z,99472
2015-02-24T09:35:50.364Z,99469
2015-02-24T09:36:00.783Z,99478
2015-02-24T09:36:11.204Z,99472
2015-02-24T09:36:21.726Z,99464
2015-02-24T09:36:32.197Z,99472
2015-02-24T09:36:42.645Z,99464
2015-02-24T09:36:53.093Z,99464
2015-02-24T09:37:03.558Z,99472
2015-02-24T09:37:13.999Z,99478
2015-02-24T09:37:24.420Z,99481
2015-02-24T09:37:34.866Z,99478
2015-02-24T09:37:45.283Z,99478
2015-02-24T09:37:55.729Z,99469
2015-02-24T09:38:06.149Z,99484
2015-02-24T09:38:16.592Z,99481
2015-02-24T09:38:27.063Z,99475
2015-02-24T09:38:37.507Z,99475
2015-02-24T09:38:48.011Z,99481
2015-02-24T09:38:58.477Z,99487
2015-02-24T09:39:08.918Z,99487
2015-02-24T09:39:19.495Z,99484
2015-02-24T09:39:29.911Z,99481
2015-02-24T09:39:40.335Z,99478
2015-02-24T09:39:50.775Z,99481
2015-02-24T09:40:01.226Z,99481
2015-02-24T09:40:11.695Z,99469
2015-02-24T09:40:22.161Z,99481
2015-02-24T09:40:32.631Z,99487
2015-02-24T09:40:43.257Z,99484
2015-02-24T09:40:53.735Z,99478
2015-02-24T09:41:04.173Z,99472
2015-02-24T09:41:14.668Z,99472
2015-02-24T09:41:25.111Z,99487
2015-02-24T09:41:35.531Z,99484
2015-02-24T09:41:45.975Z,99490
2015-02-24T09:41:56.400Z,99481
2015-02-24T09:42:06.839Z,99478
2015-02-24T09:42:17.359Z,99484
2015-02-24T09:42:27.837Z,99484
2015-02-24T09:42:38.248Z,99478
2015-02-24T09:42:48.670Z,99478
2015-02-24T09:42:59.092Z,99490
2015-02-24T09:43:09.969Z,99475
2015-02-24T09:43:20.417Z,99478
2015-02-24T09:43:30.862Z,99484
2015-02-24T09:43:41.276Z,99481
2015-02-24T09:43:51.779Z,99478
2015-02-24T09:44:02.192Z,99481
2015-02-24T09:44:12.660Z,99478
2015-02-24T09:44:23.087Z,99475
2015-02-24T09:44:33.526Z,99478
2015-02-24T09:44:43.948Z,99490
2015-02-24T09:44:54.389Z,99472
2015-02-24T09:45:04.847Z,99484
2015-02-24T09:45:15.307Z,99487
2015-02-24T09:45:25.792Z,99475
2015-02-24T09:45:36.227Z,99484
2015-02-24T09:45:46.659Z,99481
2015-02-24T09:45:57.115Z,99487
2015-02-24T09:46:07.553Z,99478
2015-02-24T09:46:17.973Z,99487
2015-02-24T09:46:28.854Z,99478
2015-02-24T09:46:39.795Z,99487
2015-02-24T09:46:50.231Z,99481
2015-02-24T09:47:00.677Z,99484
2015-02-24T09:47:11.152Z,99472
2015-02-24T09:47:21.590Z,99481
2015-02-24T09:47:32.010Z,99484
2015-02-24T09:47:42.454Z,99484
2015-02-24T09:47:52.923Z,99481
2015-02-24T09:48:03.369Z,99489
2015-02-24T09:48:13.811Z,99484
2015-02-24T09:48:24.285Z,99489
2015-02-24T09:48:34.701Z,99487
2015-02-24T09:48:45.158Z,99495
2015-02-24T09:48:55.606Z,99484
2015-02-24T09:49:06.035Z,99489
2015-02-24T09:49:16.482Z,99478
2015-02-24T09:49:26.906Z,99487
2015-02-24T09:49:37.320Z,99487
2015-02-24T09:49:47.745Z,99490
2015-02-24T09:49:58.156Z,99490
2015-02-24T09:50:08.602Z,99492
2015-02-24T09:50:19.053Z,99487
2015-02-24T09:50:29.491Z,99498
2015-02-24T09:50:39.939Z,99498
2015-02-24T09:50:50.387Z,99495
2015-02-24T09:51:00.853Z,99501
2015-02-24T09:51:11.297Z,99498
2015-02-24T09:51:21.746Z,99495
2015-02-24T09:51:32.164Z,99504
2015-02-24T09:51:42.604Z,99501
2015-02-24T09:51:53.033Z,99495
2015-02-24T09:52:03.444Z,99492
2015-02-24T09:52:13.887Z,99495
2015-02-24T09:52:24.308Z,99501
2015-02-24T09:52:34.753Z,99492
2015-02-24T09:52:45.172Z,99510
2015-02-24T09:52:55.613Z,99504
2015-02-24T09:53:06.060Z,99501
2015-02-24T09:53:16.479Z,99504
2015-02-24T09:53:26.926Z,99504
2015-02-24T09:53:37.423Z,99501
2015-02-24T09:53:47.875Z,99507
2015-02-24T09:53:58.243Z,99507
2015-02-24T09:54:08.759Z,99501
2015-02-24T09:54:19.172Z,99507
2015-02-24T09:54:29.620Z,99504
2015-02-24T09:54:40.092Z,99501
2015-02-24T09:54:50.531Z,99513
2015-02-24T09:55:00.952Z,99501
2015-02-24T09:55:11.371Z,99510
2015-02-24T14:19:39.026Z,99840
2015-02-24T14:19:49.423Z,99843
2015-02-24T14:19:59.815Z,99843
2015-02-24T14:20:10.214Z,99843
2015-02-24T14:20:20.605Z,99848
2015-02-24T14:20:30.995Z,99848
2015-02-24T14:20:42.005Z,99857
2015-02-24T14:20:52.400Z,99845
2015-02-24T14:21:02.819Z,99840
2015-02-24T14:21:13.190Z,99840
2015-02-24T14:21:23.605Z,99845
2015-02-24T14:21:34.049Z,99843
2015-02-24T14:21:44.443Z,99848
2015-02-24T14:21:54.811Z,99845
2015-02-24T14:22:05.207Z,99843
2015-02-24T14:22:15.630Z,99845
2015-02-24T14:22:26.042Z,99845
2015-02-24T14:22:36.439Z,99854
2015-02-24T14:22:46.832Z,99834
2015-02-24T14:22:57.234Z,99854
2015-02-24T14:23:07.806Z,99845
2015-02-24T14:23:18.266Z,99845
2015-02-24T14:23:28.686Z,99848
2015-02-24T14:23:39.055Z,99851
2015-02-24T14:23:49.447Z,99848
2015-02-24T14:23:59.918Z,99840
2015-02-24T14:24:10.312Z,99843
2015-02-24T14:24:20.704Z,99845
2015-02-24T14:24:31.075Z,99848
2015-02-24T14:24:42.056Z,99842
2015-02-24T14:24:52.452Z,99842
2015-02-24T14:25:02.870Z,99834
2015-02-24T14:25:14.336Z,99845
2015-02-24T14:25:24.798Z,99845
2015-02-24T14:25:35.175Z,99848
2015-02-24T14:25:45.572Z,99845
2015-02-24T14:25:56.243Z,99851
2015-02-24T14:26:09.634Z,99845
2015-02-24T14:26:20.028Z,99854
2015-02-24T14:26:30.433Z,99845
2015-02-24T14:26:40.758Z,99851
2015-02-24T14:26:51.183Z,99851
2015-02-24T14:27:01.631Z,99851
2015-02-24T14:27:12.076Z,99851
2015-02-24T14:27:23.128Z,99842
2015-02-24T14:27:33.498Z,99851
2015-02-24T14:27:43.866Z,99845
2015-02-24T14:27:54.285Z,99848
2015-02-24T14:28:04.652Z,99848
2015-02-24T14:28:15.025Z,99854
2015-02-24T14:28:25.416Z,99854
2015-02-24T14:28:35.813Z,99845
2015-02-24T14:28:46.204Z,99845
2015-02-24T14:28:56.567Z,99851
2015-02-24T14:29:06.991Z,99840
2015-02-24T14:29:17.383Z,99842
2015-02-24T14:29:27.780Z,99851
2015-02-24T14:29:38.144Z,99857
2015-02-24T14:29:48.538Z,99851
2015-02-24T14:29:58.909Z,99854
2015-02-24T14:30:09.379Z,99845
2015-02-24T14:30:19.844Z,99851
2015-02-24T14:30:30.292Z,99848
2015-02-24T14:30:40.718Z,99848
2015-02-24T14:30:51.138Z,99851
2015-02-24T14:31:01.523Z,99857
2015-02-24T14:31:11.946Z,99857
2015-02-24T14:31:22.481Z,99857
2015-02-24T14:31:32.894Z,99851
2015-02-24T14:31:43.301Z,99857
2015-02-24T14:31:53.721Z,99854
2015-02-24T14:32:04.251Z,99851
2015-02-24T14:32:14.641Z,99857
2015-02-24T14:32:25.033Z,99863
2015-02-24T14:32:35.458Z,99857
2015-02-24T14:32:45.895Z,99848
2015-02-24T14:32:56.960Z,99857
2015-02-24T14:33:07.347Z,99854
2015-02-24T14:33:17.742Z,99857
2015-02-24T14:33:28.163Z,99860
2015-02-24T14:33:38.554Z,99857
2015-02-24T14:33:48.948Z,99854
2015-02-24T14:33:59.317Z,99857
2015-02-24T14:34:09.685Z,99851
2015-02-24T14:34:20.077Z,99860
2015-02-24T14:34:30.505Z,99860
2015-02-24T14:34:41.021Z,99866
2015-02-24T14:34:51.463Z,99854
2015-02-24T14:35:02.498Z,99851
2015-02-24T14:35:12.916Z,99857
2015-02-24T14:35:23.317Z,99854
2015-02-24T14:35:33.705Z,99851
2015-02-24T14:35:44.095Z,99857
2015-02-24T14:35:54.516Z,99848
2015-02-24T14:36:04.908Z,99863
2015-02-24T14:36:15.331Z,99860
2015-02-24T14:36:25.738Z,99851
2015-02-24T14:36:36.094Z,99845
2015-02-24T14:36:46.513Z,99840
2015-02-24T14:36:56.902Z,99845
2015-02-24T14:37:07.320Z,99860
2015-02-24T14:37:17.741Z,99857
2015-02-24T14:37:28.135Z,99845
2015-02-24T14:37:38.534Z,99854
2015-02-24T14:37:48.947Z,99857
2015-02-24T14:37:59.366Z,99857
2015-02-24T14:38:09.763Z,99863
2015-02-24T14:38:20.185Z,99866
2015-02-24T14:38:30.604Z,99860
2015-02-24T14:38:41.203Z,99854
2015-02-24T14:38:51.641Z,99857
2015-02-24T14:39:02.034Z,99860
2015-02-24T14:39:12.455Z,99871
2015-02-24T14:39:22.846Z,99857
2015-02-24T14:39:33.241Z,99863
2015-02-24T14:39:43.638Z,99857
2015-02-24T14:39:54.032Z,99860
2015-02-24T14:40:04.446Z,99860
2015-02-24T14:40:14.846Z,99863
2015-02-24T14:40:25.293Z,99857
2015-02-24T14:40:35.731Z,99851
2015-02-24T14:40:46.149Z,99845
2015-02-24T14:40:56.542Z,99854
2015-02-24T14:41:06.937Z,99860
2015-02-24T14:41:17.331Z,99863
2015-02-24T14:41:27.724Z,99851
2015-02-24T14:41:38.120Z,99851
2015-02-24T14:41:48.537Z,99854
2015-02-24T14:41:58.956Z,99854
2015-02-24T14:42:09.350Z,99860
2015-02-24T14:42:19.723Z,99851
2015-02-24T14:42:30.138Z,99851
2015-02-24T14:42:40.529Z,99863
2015-02-24T14:42:50.898Z,99857
2015-02-24T14:43:01.291Z,99851
2015-02-24T14:43:11.716Z,99857
2015-02-24T14:43:22.132Z,99865
2015-02-24T14:43:32.547Z,99860
2015-02-24T14:43:42.972Z,99848
2015-02-24T14:43:53.417Z,99860
2015-02-24T14:44:05.139Z,99854
2015-02-24T14:44:15.562Z,99860
2015-02-24T14:44:25.948Z,99863
2015-02-24T14:44:36.317Z,99848
2015-02-24T14:44:46.711Z,99854
2015-02-24T14:44:57.080Z,99860
2015-02-24T14:45:07.498Z,99857
2015-02-24T14:45:17.948Z,99842
2015-02-24T14:45:28.368Z,99848
2015-02-24T14:45:38.766Z,99857
2015-02-24T14:45:49.147Z,99851
2015-02-24T14:45:59.516Z,99857
2015-02-24T14:46:09.964Z,99863
2015-02-24T14:46:20.356Z,99860
2015-02-24T14:46:30.776Z,99863
2015-02-24T14:46:41.759Z,99857
2015-02-24T14:46:52.177Z,99863
2015-02-24T14:47:02.569Z,99845
2015-02-24T14:47:12.993Z,99848
2015-02-24T14:47:23.442Z,99854
2015-02-24T14:47:33.864Z,99857
2015-02-24T14:47:44.299Z,99854
2015-02-24T14:47:54.698Z,99845
2015-02-24T14:48:05.111Z,99865
2015-02-24T14:48:15.515Z,99848
2015-02-24T14:48:25.900Z,99848
2015-02-24T14:48:36.293Z,99863
2015-02-24T14:48:46.661Z,99854
2015-02-24T14:48:57.106Z,99848
2015-02-24T14:49:07.498Z,99851
2015-02-24T14:49:17.924Z,99863
2015-02-24T14:49:28.318Z,99845
2015-02-24T14:49:39.379Z,99860
2015-02-24T14:49:49.815Z,99851
2015-02-24T14:50:00.162Z,99857
2015-02-24T14:50:10.610Z,99854
2015-02-24T14:50:21.026Z,99857
2015-02-24T14:51:08.691Z,99842
2015-02-24T14:51:19.036Z,99842
2015-02-24T14:51:29.403Z,99845
2015-02-24T14:51:39.770Z,99845
2015-02-24T14:51:50.118Z,99845
2015-02-24T14:52:00.555Z,99839
2015-02-24T14:52:10.979Z,99836
